气象报文与情报通波
气象报文机场: ZBYN
ADDS - METARS form results

(1118 UTC 18 November 2019)
数据来源 http://aviationweather.gov/metar/data/
 
METAR text: ZBYN 181100Z 34004MPS CAVOK 03/M22 Q1025 NOSIG
Conditions at: ZBYN (TAIYUAN/WUSU , CN) observed 1100 UTC 18 November 2019
Temperature: 3.0°C (37°F)
Dewpoint: -22.0°C (-8°F) [RH = 14%]
Pressure (altimeter): 30.27 inches Hg (1025.0 mb)
Winds: from the NNW (340 degrees) at 9 MPH (8 knots; 4.1 m/s)
Visibility: 6 or more miles (10+ km)
Ceiling: ceiling and visibility are OK
Clouds: unknown
Weather: no significant weather observed at this time

METAR text: ZBYN 181030Z 33003MPS CAVOK 03/M22 Q1025 NOSIG
Conditions at: ZBYN (TAIYUAN/WUSU , CN) observed 1030 UTC 18 November 2019
Temperature: 3.0°C (37°F)
Dewpoint: -22.0°C (-8°F) [RH = 14%]
Pressure (altimeter): 30.27 inches Hg (1025.0 mb)
Winds: from the NNW (330 degrees) at 7 MPH (6 knots; 3.1 m/s)
Visibility: 6 or more miles (10+ km)
Ceiling: ceiling and visibility are OK
Clouds: unknown
Weather: no significant weather observed at this time

Forecast for: ZBYN (TAIYUAN/WUSU , CN)
Text: TAF ZBYN 180902Z 1812/1912 30004MPS 6000 NSC TX10/1907Z TNM09/23Z
Forecast period: 1200 UTC 18 November 2019 to 1200 UTC 19 November 2019
Forecast type: FROM: standard forecast or significant change
Winds: from the WNW (300 degrees) at 9 MPH (8 knots; 4.1 m/s)
Visibility: 4 miles (6 km)
Ceiling: unknown
Clouds: missing
Weather: no significant weather forecast for this period

 机场地图

 跑道信息
跑道 13 跑道长度 10500 ft 跑道宽度 148 ft
跑道标高 2546 ft 跑道內移距离 0 ft 跑道磁航向 127
跑道 31 跑道长度 10500 ft 跑道宽度 148 ft
跑道标高 2575 ft 跑道內移距离 0 ft 跑道磁航向 307

 机场频率
类型 TWR 名称 TAIYUAN TW 频率 118.25 MHZ

 机场附近导航设备
类型 NDB 名称 Wolong 频率 210 KHZ
类型 VOR-DME 名称 Taiyuan 频率 113100 KHZ
类型 NDB 名称 Zhonghao 频率 439 KHZ



© FlySim.cn中国最大航空飞行视频网版权所有